Time;durP1;ratioP1;P1;durP2;ratioP2;P2;SDS_P1;SDS_P2;PMS_P1;PMS_P2;Temp;Humidity;BMP_temperature;BMP_pressure;BME280_temperature;BME280_humidity;BME280_pressure;Samples;Min_cycle;Max_cycle;Signal;HPM_P1;HPM_P2
2022/12/10 00:02:07;;;;;;;10.60;5.20;;;;;;;8.45;84.40;92803.75;5049115;28;20049;-35
2022/12/10 00:04:33;;;;;;;6.93;4.97;;;;;;;8.45;84.45;92798.25;5049759;28;20029;-35
2022/12/10 00:06:58;;;;;;;7.65;5.68;;;;;;;8.48;84.49;92799.94;5050077;28;20017;-35
2022/12/10 00:09:24;;;;;;;16.08;5.07;;;;;;;8.44;84.61;92793.31;5050000;28;20245;-35
2022/12/10 00:11:49;;;;;;;15.10;5.88;;;;;;;8.36;84.94;92796.81;5049990;28;20090;-35
2022/12/10 00:14:15;;;;;;;15.35;5.07;;;;;;;8.36;85.53;92787.81;5047874;28;20021;-35
2022/12/10 00:16:41;;;;;;;8.25;5.30;;;;;;;8.44;85.06;92793.31;5048176;28;20049;-36
2022/12/10 00:19:07;;;;;;;7.50;4.70;;;;;;;8.36;85.01;92788.53;5048952;28;20025;-35
2022/12/10 00:21:33;;;;;;;10.93;5.82;;;;;;;8.26;85.56;92795.16;5046463;28;20029;-35
2022/12/10 00:24:00;;;;;;;9.48;4.68;;;;;;;8.22;86.17;92792.75;5046826;28;20018;-35
2022/12/10 00:26:28;;;;;;;14.38;5.43;;;;;;;8.17;85.99;92801.91;5046593;28;20037;-35
2022/12/10 00:28:55;;;;;;;15.68;5.78;;;;;;;8.18;86.27;92810.88;5047342;28;20021;-35
2022/12/10 00:31:26;;;;;;;20.63;9.73;;;;;;;8.15;86.24;92807.22;5047215;28;20501;-35
2022/12/10 00:33:56;;;;;;;12.23;4.88;;;;;;;8.04;86.70;92806.81;5049641;28;20103;-35
2022/12/10 00:36:28;;;;;;;18.35;8.32;;;;;;;8.09;87.07;92792.19;5049813;28;20021;-35
2022/12/10 00:38:53;;;;;;;18.35;6.80;;;;;;;8.24;86.36;92795.69;5047118;28;20025;-35
2022/12/10 00:41:19;;;;;;;21.17;9.35;;;;;;;8.16;86.44;92788.72;5047144;28;20111;-35
2022/12/10 00:43:45;;;;;;;18.25;9.13;;;;;;;8.02;86.14;92774.41;5048035;28;20098;-35
2022/12/10 00:46:12;;;;;;;15.93;8.13;;;;;;;8.09;86.19;92773.66;5048286;28;20067;-35
2022/12/10 00:48:37;;;;;;;11.20;5.68;;;;;;;8.21;86.40;92802.25;5050014;28;20028;-35
2022/12/10 00:51:06;;;;;;;11.88;5.68;;;;;;;8.18;86.24;92802.63;5048872;28;20515;-35
2022/12/10 00:53:33;;;;;;;9.75;5.15;;;;;;;8.23;86.36;92805.19;5047864;28;20028;-35
2022/12/10 00:55:59;;;;;;;10.27;5.38;;;;;;;8.33;85.42;92797.91;5045458;28;20013;-35
2022/12/10 00:58:31;;;;;;;26.58;7.35;;;;;;;8.33;85.06;92792.41;5047028;28;20564;-35
2022/12/10 01:01:33;;;;;;;14.32;6.53;;;;;;;8.40;84.74;92793.69;5049459;28;20156;-34
2022/12/10 01:04:01;;;;;;;12.57;6.43;;;;;;;8.37;84.94;92798.28;5025491;28;20036;-35
2022/12/10 01:06:32;;;;;;;11.80;6.10;;;;;;;8.40;84.70;92799.19;5049253;28;20493;-35
2022/12/10 01:09:02;;;;;;;14.73;6.57;;;;;;;8.37;84.58;92803.03;5047525;28;20029;-34
2022/12/10 01:11:30;;;;;;;12.65;6.40;;;;;;;8.41;84.61;92803.41;5049055;28;20037;-35
2022/12/10 01:13:56;;;;;;;13.40;7.45;;;;;;;8.36;84.39;92796.81;5049280;28;20082;-35
2022/12/10 01:16:22;;;;;;;15.23;6.18;;;;;;;8.30;84.66;92790.00;5043957;28;20489;-35
2022/12/10 01:18:48;;;;;;;17.13;6.90;;;;;;;8.21;85.41;92799.50;5048504;28;20117;-35
2022/12/10 01:21:16;;;;;;;17.75;7.07;;;;;;;8.20;85.54;92794.56;5049420;28;20104;-35
2022/12/10 01:23:44;;;;;;;15.83;6.53;;;;;;;8.19;85.29;92795.84;5049008;28;20021;-35
2022/12/10 01:26:15;;;;;;;20.55;6.00;;;;;;;8.20;85.56;92798.06;5045854;28;20025;-35
2022/12/10 01:28:41;;;;;;;6.65;3.88;;;;;;;8.14;85.37;92794.75;5045275;28;20026;-35
2022/12/10 01:31:13;;;;;;;13.27;5.28;;;;;;;8.17;85.43;92792.91;5048910;28;20017;-35
2022/12/10 01:33:39;;;;;;;11.65;5.28;;;;;;;8.17;85.83;92785.41;5052853;28;20112;-36
2022/12/10 01:36:07;;;;;;;13.07;5.18;;;;;;;8.19;85.36;92793.84;5051255;28;20045;-34
2022/12/10 01:38:33;;;;;;;11.53;6.00;;;;;;;8.30;85.16;92788.00;5050810;28;20017;-35
2022/12/10 01:40:59;;;;;;;11.02;5.68;;;;;;;8.25;84.84;92788.16;5052776;28;21038;-35
2022/12/10 01:43:25;;;;;;;13.30;6.13;;;;;;;8.20;85.04;92784.31;5052477;28;20033;-35
2022/12/10 01:45:50;;;;;;;12.38;5.63;;;;;;;8.36;84.43;92791.31;5051628;28;20040;-35
2022/12/10 01:48:16;;;;;;;15.02;6.72;;;;;;;8.17;84.31;92782.66;5051044;28;20108;-35
2022/12/10 01:50:41;;;;;;;13.73;7.55;;;;;;;8.39;84.25;92805.97;5048138;28;20048;-34
2022/12/10 01:53:07;;;;;;;18.27;7.32;;;;;;;8.41;83.70;92797.91;5052487;28;20025;-35
2022/12/10 01:55:45;;;;;;;21.60;10.45;;;;;;;8.38;84.27;92794.22;5051740;28;20021;-35
2022/12/10 01:58:12;;;;;;;19.17;10.13;;;;;;;8.29;84.71;92791.31;5051916;28;21248;-35
2022/12/10 02:00:43;;;;;;;21.48;10.90;;;;;;;8.17;84.81;92759.91;5049241;28;20033;-36
2022/12/10 02:03:14;;;;;;;30.58;11.25;;;;;;;8.26;85.01;92784.16;5049306;28;20497;-35
2022/12/10 02:05:54;;;;;;;20.88;10.07;;;;;;;8.26;85.57;92787.63;5051333;28;20411;-35
2022/12/10 02:08:37;;;;;;;21.02;10.48;;;;;;;8.14;86.23;92781.00;5032429;28;20087;-35
2022/12/10 02:11:16;;;;;;;15.93;9.65;;;;;;;8.12;86.86;92769.81;5037055;28;20100;-35
2022/12/10 02:14:04;;;;;;;13.70;7.10;;;;;;;8.18;87.09;92773.13;5044281;28;20490;-35
2022/12/10 02:16:34;;;;;;;10.25;5.53;;;;;;;8.16;87.15;92783.22;5049107;28;20028;-35
2022/12/10 02:19:21;;;;;;;9.27;4.88;;;;;;;8.26;86.95;92775.91;5051602;28;20020;-35
2022/12/10 02:21:49;;;;;;;9.68;5.22;;;;;;;8.21;86.92;92765.78;5067486;28;20025;-35
2022/12/10 02:24:20;;;;;;;9.13;5.85;;;;;;;8.19;87.32;92760.09;5050814;28;20009;-35
2022/12/10 02:27:18;;;;;;;10.45;4.32;;;;;;;8.22;87.20;92759.75;5050303;28;20508;-35
2022/12/10 02:29:46;;;;;;;14.10;5.30;;;;;;;8.27;86.74;92772.59;5050045;28;20016;-34
2022/12/10 02:32:22;;;;;;;13.85;5.40;;;;;;;8.36;86.24;92768.56;5050442;28;20051;-35
2022/12/10 02:34:50;;;;;;;11.80;5.72;;;;;;;8.35;86.45;92778.84;5047390;28;20083;-35
2022/12/10 02:37:29;;;;;;;12.50;5.38;;;;;;;8.34;86.69;92773.88;5047372;28;20017;-35
2022/12/10 02:39:57;;;;;;;12.30;5.05;;;;;;;8.32;87.13;92776.44;5050041;28;20056;-35
2022/12/10 02:42:24;;;;;;;11.60;5.28;;;;;;;8.30;87.78;92763.25;5051488;28;20497;-35
2022/12/10 02:44:51;;;;;;;15.40;5.55;;;;;;;8.24;88.33;92770.94;5049796;28;20037;-35
2022/12/10 02:47:17;;;;;;;8.57;4.95;;;;;;;8.24;88.56;92768.19;5039926;28;20158;-35
2022/12/10 02:49:46;;;;;;;13.35;6.00;;;;;;;8.24;88.61;92778.44;5050293;28;20032;-35
2022/12/10 02:52:15;;;;;;;19.40;7.40;;;;;;;8.28;88.47;92762.34;5050277;28;20016;-35
2022/12/10 02:54:42;;;;;;;15.30;6.50;;;;;;;8.32;88.86;92759.94;5048321;28;20758;-35
2022/12/10 02:57:29;;;;;;;10.35;5.10;;;;;;;8.35;88.41;92754.09;5050153;28;20017;-35
2022/12/10 03:00:16;;;;;;;17.45;6.35;;;;;;;8.31;87.89;92753.72;5051594;28;20020;-35
2022/12/10 03:03:19;;;;;;;14.50;5.68;;;;;;;8.30;88.45;92746.00;5049083;28;20021;-35
2022/12/10 03:06:00;;;;;;;11.98;5.57;;;;;;;8.22;89.34;92759.00;5046666;28;20565;-35
2022/12/10 03:08:40;;;;;;;17.38;5.13;;;;;;;8.28;89.30;92749.31;5057309;28;20045;-35
2022/12/10 03:11:11;;;;;;;14.02;5.03;;;;;;;8.25;89.92;92746.91;5049496;28;20021;-35
2022/12/10 03:13:43;;;;;;;10.23;5.78;;;;;;;8.29;89.91;92756.28;5051437;28;20090;-36
2022/12/10 03:16:10;;;;;;;10.38;5.28;;;;;;;8.28;89.87;92754.09;5049716;28;20021;-35
2022/12/10 03:18:37;;;;;;;11.77;5.53;;;;;;;8.30;90.00;92744.00;5049929;28;20037;-35
2022/12/10 03:21:05;;;;;;;14.68;6.22;;;;;;;8.29;90.20;92747.31;5050200;28;20025;-36
2022/12/10 03:23:33;;;;;;;11.20;5.63;;;;;;;8.21;90.67;92752.03;5048943;28;20028;-35
2022/12/10 03:26:00;;;;;;;9.07;4.82;;;;;;;8.19;91.17;92765.59;5046765;28;20032;-35
2022/12/10 03:28:26;;;;;;;13.95;5.85;;;;;;;8.07;92.12;92759.00;5049606;28;20058;-35
2022/12/10 03:30:52;;;;;;;10.98;5.88;;;;;;;8.05;92.70;92769.81;5049031;28;20037;-34
2022/12/10 03:33:18;;;;;;;14.15;5.50;;;;;;;8.10;93.70;92766.16;5047739;28;20029;-35
2022/12/10 03:35:45;;;;;;;22.35;6.35;;;;;;;8.16;93.71;92763.97;5049415;28;20497;-35
2022/12/10 03:38:10;;;;;;;9.15;6.20;;;;;;;8.17;93.43;92762.66;5033492;28;20036;-35
2022/12/10 03:40:36;;;;;;;12.05;5.20;;;;;;;8.01;93.32;92739.94;5044743;28;20025;-35
2022/12/10 03:43:01;;;;;;;12.98;6.28;;;;;;;8.21;93.26;92768.53;5046172;28;20029;-35
2022/12/10 03:45:28;;;;;;;13.13;5.32;;;;;;;8.26;94.04;92762.16;5044295;28;20576;-35
2022/12/10 03:47:53;;;;;;;13.85;5.97;;;;;;;8.31;93.53;92759.22;5049076;28;20548;-35
2022/12/10 03:50:18;;;;;;;11.27;6.07;;;;;;;8.35;93.46;92764.34;5050085;28;20067;-35
2022/12/10 03:52:44;;;;;;;11.40;5.32;;;;;;;8.23;93.55;92760.47;5049769;28;20083;-35
2022/12/10 03:55:10;;;;;;;18.98;5.57;;;;;;;8.12;94.34;92747.81;5049174;28;20109;-35
2022/12/10 03:57:35;;;;;;;10.27;5.18;;;;;;;8.25;94.96;92760.66;5048994;28;20035;-36
2022/12/10 04:00:03;;;;;;;8.15;5.82;;;;;;;8.27;95.07;92750.59;5047871;28;20021;-35
2022/12/10 04:02:28;;;;;;;11.90;5.80;;;;;;;8.29;95.05;92755.56;5049831;28;20110;-35
2022/12/10 04:04:54;;;;;;;15.90;6.43;;;;;;;8.33;95.24;92753.16;5048504;28;20052;-35
2022/12/10 04:07:19;;;;;;;9.07;5.45;;;;;;;8.32;95.87;92751.69;5048378;28;20021;-35
2022/12/10 04:09:45;;;;;;;10.70;5.30;;;;;;;8.25;96.20;92747.66;5046921;28;20028;-36
2022/12/10 04:12:10;;;;;;;16.58;6.72;;;;;;;8.19;96.55;92755.34;5048690;28;20071;-35
2022/12/10 04:17:33;;;;;;;16.30;6.28;;;;;;;8.32;96.94;92729.69;4995351;28;20105;-36
2022/12/10 04:19:59;;;;;;;20.77;6.10;;;;;;;8.26;97.38;92721.63;5049746;28;20012;-35
2022/12/10 04:27:55;;;;;;;14.65;6.05;;;;;;;8.34;97.64;92716.13;5044443;28;20035;-35
2022/12/10 04:30:21;;;;;;;11.65;5.90;;;;;;;8.34;97.30;92718.88;5049223;28;20416;-35
2022/12/10 04:32:46;;;;;;;13.70;6.00;;;;;;;8.36;96.92;92702.53;5046838;28;20025;-35
2022/12/10 04:35:12;;;;;;;13.15;5.55;;;;;;;8.49;96.59;92712.63;5049738;28;20025;-36
2022/12/10 04:37:37;;;;;;;12.20;6.10;;;;;;;8.53;95.87;92710.97;5048059;28;20020;-35
2022/12/10 04:40:04;;;;;;;9.00;6.03;;;;;;;8.56;95.33;92714.63;5049092;28;20505;-35
2022/12/10 04:42:29;;;;;;;16.35;5.50;;;;;;;8.53;95.49;92715.75;5049462;28;20815;-35
2022/12/10 04:44:55;;;;;;;14.07;6.32;;;;;;;8.57;95.32;92722.34;5049285;28;20043;-35
2022/12/10 04:47:20;;;;;;;14.43;6.07;;;;;;;8.53;95.38;92724.00;5046179;28;20639;-35
2022/12/10 04:49:46;;;;;;;11.73;5.65;;;;;;;8.55;95.88;92721.41;5046160;28;20021;-35
2022/12/10 04:52:13;;;;;;;12.88;5.85;;;;;;;8.46;95.91;92714.47;5047330;28;20036;-34
2022/12/10 04:54:40;;;;;;;11.75;6.47;;;;;;;8.40;95.98;92705.69;5041999;28;20024;-35
2022/12/10 04:57:07;;;;;;;9.65;6.43;;;;;;;8.51;95.61;92712.81;5049177;28;20017;-35
2022/12/10 04:59:33;;;;;;;15.73;7.57;;;;;;;8.40;95.52;92709.13;5049353;28;20060;-34
2022/12/10 05:01:58;;;;;;;10.77;6.50;;;;;;;8.61;95.30;92746.72;5048958;28;20493;-34
2022/12/10 05:04:24;;;;;;;13.10;6.38;;;;;;;8.60;95.56;92745.97;5049250;28;20397;-34
2022/12/10 05:06:49;;;;;;;10.18;5.82;;;;;;;8.55;95.52;92738.66;5051104;28;20492;-35
2022/12/10 05:09:16;;;;;;;10.55;6.78;;;;;;;8.63;95.63;92750.38;5053315;28;20554;-36
2022/12/10 05:11:44;;;;;;;17.58;5.85;;;;;;;8.46;95.30;92714.47;5048012;28;20460;-36
2022/12/10 05:14:13;;;;;;;12.95;7.30;;;;;;;8.74;94.64;92738.25;5052269;28;20497;-36
2022/12/10 05:16:39;;;;;;;12.35;6.30;;;;;;;8.68;94.83;92738.47;5052956;28;20576;-35
2022/12/10 05:19:05;;;;;;;15.43;6.53;;;;;;;8.62;94.57;92731.69;5053092;28;20055;-35
2022/12/10 05:24:15;;;;;;;10.57;6.00;;;;;;;8.79;94.10;92746.31;5051871;28;20067;-35
2022/12/10 05:26:41;;;;;;;18.90;8.15;;;;;;;8.81;93.97;92757.53;5051621;28;20056;-35
2022/12/10 05:29:07;;;;;;;16.80;7.68;;;;;;;8.77;94.18;92751.63;5052574;28;20044;-35
2022/12/10 05:31:32;;;;;;;13.52;6.40;;;;;;;8.79;94.61;92740.78;5052866;28;20078;-35
2022/12/10 05:33:58;;;;;;;9.25;4.75;;;;;;;8.71;95.04;92742.84;5052865;28;20021;-35
2022/12/10 05:36:26;;;;;;;9.23;6.13;;;;;;;8.63;96.03;92742.13;5052164;28;20028;-35
2022/12/10 05:38:53;;;;;;;14.27;6.50;;;;;;;8.57;96.42;92741.59;5049666;28;20025;-35
2022/12/10 05:41:24;;;;;;;10.15;6.32;;;;;;;8.59;96.73;92744.53;5052204;28;20036;-35
2022/12/10 05:43:50;;;;;;;14.75;6.32;;;;;;;8.62;96.61;92745.44;5051335;28;20100;-35
2022/12/10 05:46:18;;;;;;;12.57;7.68;;;;;;;8.66;96.24;92738.28;5052139;28;20037;-35
2022/12/10 05:48:44;;;;;;;13.43;7.60;;;;;;;8.70;95.86;92735.88;5052783;28;20020;-35
2022/12/10 05:51:13;;;;;;;16.83;8.00;;;;;;;8.75;95.50;92728.72;5051152;28;20028;-35
2022/12/10 05:53:39;;;;;;;15.65;7.35;;;;;;;8.73;95.58;92728.53;5048050;28;20440;-35
2022/12/10 05:56:18;;;;;;;15.85;7.40;;;;;;;8.59;96.41;92724.53;5052793;28;20028;-35
2022/12/10 05:58:43;;;;;;;;;;;;;;;8.65;96.37;92723.03;5053192;28;20048;-35
2022/12/10 06:01:14;;;;;;;12.90;7.47;;;;;;;8.62;96.55;92707.63;5052456;28;19940;-36
2022/12/10 06:03:39;;;;;;;24.98;9.10;;;;;;;8.55;97.04;92710.41;5047712;28;20025;-35
2022/12/10 06:06:05;;;;;;;14.25;7.57;;;;;;;8.66;96.96;92713.53;5052097;28;20412;-34
2022/12/10 06:08:32;;;;;;;12.93;8.80;;;;;;;8.67;96.27;92717.72;5050300;28;20025;-35
2022/12/10 06:11:01;;;;;;;22.50;8.45;;;;;;;8.71;96.47;92717.34;5047874;28;20035;-35
2022/12/10 06:13:27;;;;;;;27.67;8.20;;;;;;;8.73;96.57;92725.75;5050944;28;20028;-35
2022/12/10 06:15:52;;;;;;;17.42;8.85;;;;;;;8.80;95.92;92741.53;5050781;28;20021;-35
2022/12/10 06:18:18;;;;;;;13.77;8.75;;;;;;;8.81;95.53;92745.78;5051018;28;20588;-35
2022/12/10 06:20:43;;;;;;;12.13;6.47;;;;;;;8.60;95.83;92726.72;5051160;28;20528;-35
2022/12/10 06:23:09;;;;;;;12.13;6.00;;;;;;;8.60;96.51;92756.28;5051282;28;20482;-35
2022/12/10 06:25:37;;;;;;;12.30;6.32;;;;;;;8.59;97.95;92755.53;5051017;28;20032;-35
2022/12/10 06:28:03;;;;;;;10.65;6.53;;;;;;;8.58;97.86;92765.06;5051425;28;20028;-35
2022/12/10 06:30:28;;;;;;;8.82;5.95;;;;;;;8.57;97.66;92757.38;5050234;28;20641;-35
2022/12/10 06:32:54;;;;;;;13.98;5.68;;;;;;;8.59;98.13;92750.03;5050951;28;20512;-34
2022/12/10 06:35:20;;;;;;;14.43;6.57;;;;;;;8.66;97.83;92763.06;5050715;28;20028;-34
2022/12/10 06:37:45;;;;;;;10.98;7.10;;;;;;;8.83;97.02;92763.19;5047926;28;20068;-35
2022/12/10 06:40:11;;;;;;;13.20;7.03;;;;;;;8.89;96.99;92758.22;5049578;28;20481;-34
2022/12/10 06:42:38;;;;;;;18.05;9.68;;;;;;;8.95;96.62;92758.00;5048354;28;20028;-34
2022/12/10 06:45:04;;;;;;;10.73;7.13;;;;;;;8.87;96.53;92747.03;5050146;28;20479;-34
2022/12/10 06:47:29;;;;;;;11.13;5.28;;;;;;;8.96;95.99;92756.75;5050632;28;20463;-35
2022/12/10 06:49:55;;;;;;;7.53;5.63;;;;;;;8.64;95.69;92713.31;5051526;28;20035;-34
2022/12/10 06:52:21;;;;;;;13.20;5.85;;;;;;;8.78;96.14;92724.84;5049952;28;20547;-34
2022/12/10 06:54:46;;;;;;;8.27;5.88;;;;;;;8.83;96.53;92740.44;5050592;28;20017;-35
2022/12/10 06:57:12;;;;;;;14.60;6.05;;;;;;;8.84;96.70;92745.38;5048318;28;20086;-35
2022/12/10 06:59:37;;;;;;;22.20;13.10;;;;;;;8.86;96.90;92737.28;5051566;28;20082;-35
2022/12/10 07:02:02;;;;;;;12.55;7.78;;;;;;;8.84;96.67;92715.09;5046622;28;20033;-35
2022/12/10 07:04:28;;;;;;;9.93;6.20;;;;;;;8.86;97.07;92720.03;5050934;28;20036;-35
2022/12/10 07:06:53;;;;;;;13.00;6.25;;;;;;;8.99;96.59;92734.31;5049403;28;20032;-35
2022/12/10 07:09:19;;;;;;;12.70;7.25;;;;;;;8.91;96.47;92741.88;5051132;28;20025;-35
2022/12/10 07:11:44;;;;;;;17.85;8.25;;;;;;;8.78;97.03;92744.84;5044773;28;20032;-35
2022/12/10 07:14:15;;;;;;;13.90;7.13;;;;;;;8.88;97.42;92748.50;5050422;28;20021;-35
2022/12/10 07:16:41;;;;;;;20.40;7.47;;;;;;;8.84;97.09;92744.63;5049429;28;20024;-35
2022/12/10 07:19:07;;;;;;;9.70;6.00;;;;;;;8.87;97.48;92738.03;5044328;28;20078;-35
2022/12/10 07:21:34;;;;;;;15.30;6.65;;;;;;;8.91;97.57;92735.63;5046530;28;20501;-35
2022/12/10 07:24:03;;;;;;;13.18;6.70;;;;;;;8.89;97.62;92736.19;5047951;28;20025;-35
2022/12/10 07:26:31;;;;;;;13.45;7.53;;;;;;;9.00;97.13;92724.78;5047932;28;20086;-35
2022/12/10 07:28:57;;;;;;;24.67;12.50;;;;;;;9.18;96.41;92731.16;5047366;28;20028;-35
2022/12/10 07:31:23;;;;;;;32.85;12.43;;;;;;;9.14;96.26;92739.03;5048088;28;20048;-34
2022/12/10 07:33:50;;;;;;;31.05;11.38;;;;;;;9.17;95.85;92751.72;5045317;28;20615;-35
2022/12/10 07:36:16;;;;;;;21.48;8.98;;;;;;;9.22;96.34;92745.28;5048182;28;20025;-35
2022/12/10 07:38:41;;;;;;;16.13;8.30;;;;;;;9.30;96.21;92745.97;5044963;28;20048;-35
2022/12/10 07:41:09;;;;;;;11.07;7.15;;;;;;;9.43;95.37;92742.97;5048288;28;20569;-35
2022/12/10 07:43:35;;;;;;;18.27;7.65;;;;;;;9.54;95.25;92739.06;5047100;28;20029;-35
2022/12/10 07:46:13;;;;;;;15.35;7.78;;;;;;;9.67;95.51;92742.28;5047691;28;20155;-35
2022/12/10 07:48:40;;;;;;;14.00;9.32;;;;;;;9.89;95.30;92738.69;5044946;28;20028;-35
2022/12/10 07:51:06;;;;;;;16.17;9.10;;;;;;;10.06;94.94;92735.25;5042217;28;20025;-35
2022/12/10 07:53:32;;;;;;;16.77;10.10;;;;;;;10.23;94.44;92727.06;5046521;28;20593;-35
2022/12/10 07:55:57;;;;;;;15.18;10.88;;;;;;;10.36;93.71;92729.50;5047601;28;20020;-35
2022/12/10 07:58:23;;;;;;;33.65;15.85;;;;;;;10.41;92.87;92730.59;5043648;28;20742;-35
2022/12/10 08:00:48;;;;;;;29.63;17.38;;;;;;;10.43;92.23;92720.44;5039908;28;20029;-36
2022/12/10 08:03:14;;;;;;;17.35;10.82;;;;;;;10.41;91.45;92722.31;5042845;28;20141;-35
2022/12/10 08:05:39;;;;;;;20.02;11.32;;;;;;;10.43;90.64;92725.22;5045113;28;20021;-35
2022/12/10 08:08:05;;;;;;;18.98;9.15;;;;;;;10.21;90.96;92706.84;5041595;28;20028;-35
2022/12/10 08:10:34;;;;;;;19.95;7.95;;;;;;;10.10;91.64;92719.03;5040811;28;20036;-35
2022/12/10 08:12:59;;;;;;;11.13;8.50;;;;;;;9.98;92.50;92715.28;5041270;28;20060;-35
2022/12/10 08:15:27;;;;;;;15.18;7.50;;;;;;;9.96;92.38;92709.59;5037727;28;20476;-35
2022/12/10 08:17:53;;;;;;;13.20;6.95;;;;;;;10.02;93.61;92706.59;5044542;28;20036;-35
2022/12/10 08:20:20;;;;;;;18.05;7.38;;;;;;;10.21;93.60;92706.84;5044633;28;20037;-35
2022/12/10 08:22:46;;;;;;;17.02;6.78;;;;;;;10.47;91.31;92701.47;5041834;28;20052;-35
2022/12/10 08:25:11;;;;;;;10.23;6.50;;;;;;;10.73;88.85;92708.38;5043424;28;20561;-35
2022/12/10 08:27:37;;;;;;;15.80;9.02;;;;;;;11.23;89.88;92706.16;5043613;28;20425;-36
2022/12/10 08:30:03;;;;;;;11.07;5.70;;;;;;;12.67;82.46;92704.81;5043825;28;20860;-36
2022/12/10 08:32:28;;;;;;;9.35;5.57;;;;;;;14.64;75.32;92709.78;5046616;28;20578;-36
2022/12/10 08:34:54;;;;;;;6.38;5.05;;;;;;;16.34;66.54;92720.06;5045081;28;20024;-36
2022/12/10 08:37:19;;;;;;;11.43;4.88;;;;;;;18.07;61.72;92707.84;5045191;28;20083;-37
2022/12/10 08:39:45;;;;;;;9.07;5.10;;;;;;;19.21;55.75;92698.47;5047123;28;20108;-36
2022/12/10 08:42:10;;;;;;;8.23;4.68;;;;;;;19.90;53.11;92696.25;5046993;28;20021;-37
2022/12/10 08:44:36;;;;;;;11.55;6.80;;;;;;;19.77;51.61;92699.84;5047456;28;20544;-37
2022/12/10 08:47:02;;;;;;;5.88;4.35;;;;;;;18.78;53.14;92692.06;5042768;28;20039;-36
2022/12/10 08:49:27;;;;;;;8.63;5.15;;;;;;;18.10;54.59;92698.22;5044819;28;20559;-36
2022/12/10 08:51:53;;;;;;;20.98;10.80;;;;;;;16.83;59.02;92701.44;5045834;28;20124;-36
2022/12/10 08:54:19;;;;;;;14.90;9.60;;;;;;;16.47;59.43;92685.31;5044995;28;20060;-36
2022/12/10 08:56:44;;;;;;;23.02;10.48;;;;;;;16.02;62.31;92678.38;5041255;28;20068;-36
2022/12/10 08:59:10;;;;;;;17.45;9.98;;;;;;;15.66;63.66;92663.66;5042248;28;20035;-36
2022/12/10 09:01:36;;;;;;;9.48;7.30;;;;;;;15.39;65.19;92657.75;5045275;28;20029;-36
2022/12/10 09:04:01;;;;;;;16.48;8.98;;;;;;;15.53;65.05;92653.09;5047283;28;20024;-36
2022/12/10 09:06:27;;;;;;;10.40;7.25;;;;;;;15.95;64.65;92649.44;5046926;28;20082;-37
2022/12/10 09:08:53;;;;;;;5.22;4.40;;;;;;;16.27;62.17;92656.22;5047540;28;20029;-36
2022/12/10 09:11:27;;;;;;;5.28;4.10;;;;;;;16.22;62.91;92640.63;5046386;28;20607;-36
2022/12/10 09:13:53;;;;;;;10.32;5.05;;;;;;;16.87;61.31;92642.41;5046545;28;20024;-36
2022/12/10 09:16:19;;;;;;;9.80;6.75;;;;;;;17.14;59.91;92640.50;5044669;28;20029;-36
2022/12/10 09:18:45;;;;;;;15.43;6.85;;;;;;;17.04;60.00;92634.38;5042058;28;20040;-36
2022/12/10 09:21:13;;;;;;;7.25;5.68;;;;;;;16.68;60.29;92635.03;5046874;28;20025;-36
2022/12/10 09:23:39;;;;;;;11.57;6.67;;;;;;;16.44;60.79;92622.44;5046939;28;20036;-36
2022/12/10 09:26:09;;;;;;;14.43;6.70;;;;;;;16.17;60.97;92619.44;5045652;28;20163;-36
2022/12/10 09:28:35;;;;;;;9.13;5.22;;;;;;;16.54;59.84;92606.34;5046727;28;20033;-36
2022/12/10 09:31:03;;;;;;;6.55;2.85;;;;;;;16.59;57.79;92602.44;5046817;28;20045;-36
2022/12/10 09:33:30;;;;;;;8.75;4.70;;;;;;;16.94;60.26;92600.31;5047088;28;20025;-36
2022/12/10 09:35:55;;;;;;;3.55;2.60;;;;;;;17.11;55.58;92596.38;5047372;28;20098;-37
2022/12/10 09:38:23;;;;;;;5.43;3.72;;;;;;;17.07;57.90;92596.13;5046500;28;20028;-36
2022/12/10 09:41:04;;;;;;;3.75;3.13;;;;;;;17.43;55.51;92593.31;5045037;28;20036;-37
2022/12/10 09:43:57;;;;;;;3.78;2.70;;;;;;;18.02;54.00;92574.88;5043267;28;20086;-37
2022/12/10 09:46:35;;;;;;;15.43;2.70;;;;;;;18.68;52.34;92579.69;5040914;28;20053;-36
2022/12/10 09:49:06;;;;;;;5.80;2.33;;;;;;;19.41;47.91;92570.72;5048265;28;20025;-36
2022/12/10 09:51:34;;;;;;;4.80;2.70;;;;;;;19.91;47.55;92580.03;5047889;28;20020;-36
2022/12/10 09:54:02;;;;;;;2.25;2.00;;;;;;;20.11;45.48;92581.69;5046884;28;20031;-36
2022/12/10 09:56:33;;;;;;;5.60;2.22;;;;;;;19.25;47.56;92583.91;5049909;28;20557;-36
2022/12/10 09:59:02;;;;;;;9.45;5.07;;;;;;;19.88;49.24;92581.31;5049127;28;20501;-36
2022/12/10 10:01:29;;;;;;;10.95;5.53;;;;;;;20.40;47.29;92567.56;5048412;28;20033;-37
2022/12/10 10:03:54;;;;;;;4.57;3.10;;;;;;;20.11;45.60;92587.28;5049919;28;20108;-36
2022/12/10 10:06:21;;;;;;;4.05;2.13;;;;;;;20.37;44.95;92584.94;5049901;28;20465;-37
2022/12/10 10:08:51;;;;;;;8.23;2.83;;;;;;;20.64;45.77;92579.13;5042480;28;20020;-36
2022/12/10 10:11:19;;;;;;;5.40;2.70;;;;;;;20.74;45.16;92582.38;5045771;28;20056;-36
2022/12/10 10:13:52;;;;;;;4.38;2.08;;;;;;;20.87;42.39;92573.09;5052020;28;20070;-36
2022/12/10 10:16:36;;;;;;;5.18;2.55;;;;;;;20.42;45.27;92577.44;5046922;28;20115;-37
2022/12/10 10:19:16;;;;;;;6.80;2.92;;;;;;;19.71;45.70;92585.41;5047550;28;20112;-37
2022/12/10 10:21:45;;;;;;;2.60;1.80;;;;;;;19.16;45.31;92556.91;5048950;28;20416;-36
2022/12/10 10:24:41;;;;;;;4.53;2.92;;;;;;;18.95;46.93;92560.06;5049703;28;20020;-36
2022/12/10 10:27:19;;;;;;;11.30;2.53;;;;;;;19.14;47.51;92554.00;5043614;28;20146;-37
2022/12/10 10:29:46;;;;;;;4.93;2.20;;;;;;;19.30;45.67;92554.03;5059514;28;20037;-36
2022/12/10 10:32:19;;;;;;;6.95;2.22;;;;;;;18.97;47.02;92551.06;5049121;28;20154;-36
2022/12/10 10:34:47;;;;;;;4.32;2.58;;;;;;;18.45;48.00;92549.88;5051108;28;20118;-36
2022/12/10 10:37:29;;;;;;;8.10;2.60;;;;;;;18.42;49.57;92544.78;5049444;28;20028;-35
2022/12/10 10:39:56;;;;;;;6.30;2.45;;;;;;;18.14;49.50;92542.00;5044323;28;20478;-36
2022/12/10 10:42:33;;;;;;;5.20;2.22;;;;;;;17.40;51.00;92549.19;5065185;28;20069;-36
2022/12/10 10:44:58;;;;;;;5.50;3.35;;;;;;;17.08;52.28;92528.63;5048884;28;20045;-36
2022/12/10 10:47:30;;;;;;;5.43;2.55;;;;;;;16.89;52.21;92528.22;5045021;28;20087;-36
2022/12/10 10:49:56;;;;;;;6.28;2.30;;;;;;;17.01;52.41;92532.41;5048770;28;20029;-36
2022/12/10 10:52:21;;;;;;;3.28;2.20;;;;;;;17.44;50.96;92516.63;5044901;28;20508;-36
2022/12/10 10:54:47;;;;;;;5.82;2.55;;;;;;;17.83;51.15;92519.41;5046467;28;20096;-36
2022/12/10 10:57:27;;;;;;;7.57;2.70;;;;;;;18.45;49.76;92510.75;5042114;28;20051;-37
2022/12/10 11:00:00;;;;;;;4.57;2.22;;;;;;;18.15;48.37;92518.31;5045408;28;20138;-36
2022/12/10 11:02:30;;;;;;;2.45;2.05;;;;;;;18.36;48.78;92514.47;5047547;28;20309;-36
2022/12/10 11:04:59;;;;;;;3.85;1.73;;;;;;;18.25;48.09;92520.91;5044190;28;20041;-37
2022/12/10 11:07:37;;;;;;;5.68;2.35;;;;;;;17.87;48.55;92516.09;5076117;28;20029;-36
2022/12/10 11:10:24;;;;;;;8.83;2.40;;;;;;;17.71;49.43;92515.28;5045849;28;20024;-36
2022/12/10 11:12:56;;;;;;;5.35;2.45;;;;;;;17.18;50.96;92508.91;5046716;28;20469;-36
2022/12/10 11:15:21;;;;;;;7.22;2.70;;;;;;;16.70;52.51;92501.38;5048082;28;20038;-36
2022/12/10 11:17:48;;;;;;;9.48;3.10;;;;;;;16.69;53.33;92474.84;5048715;28;20033;-36
2022/12/10 11:20:32;;;;;;;3.42;2.20;;;;;;;17.15;51.70;92496.91;5049570;28;20520;-36
2022/12/10 11:23:01;;;;;;;5.93;2.30;;;;;;;17.25;52.04;92488.38;5050524;28;20409;-36
2022/12/10 11:25:47;;;;;;;9.97;2.07;;;;;;;17.39;51.08;92484.25;5049578;28;20017;-36
2022/12/10 11:28:25;;;;;;;4.75;2.28;;;;;;;17.49;51.27;92484.09;5049473;28;20639;-36
2022/12/10 11:31:10;;;;;;;5.90;2.65;;;;;;;16.85;52.31;92475.72;5048294;28;20047;-36
2022/12/10 11:33:54;;;;;;;3.63;2.42;;;;;;;16.96;52.12;92438.69;5047614;28;20031;-36
2022/12/10 11:37:01;;;;;;;4.97;2.28;;;;;;;17.44;51.99;92454.50;5045299;28;20021;-34
2022/12/10 11:39:39;;;;;;;3.72;2.88;;;;;;;17.83;50.68;92455.19;5052461;28;20040;-35
2022/12/10 11:42:11;;;;;;;6.50;2.33;;;;;;;17.24;51.98;92456.94;5044291;28;20079;-35
2022/12/10 11:45:08;;;;;;;5.30;2.50;;;;;;;16.95;52.69;92456.78;5047349;28;20049;-35
2022/12/10 11:47:55;;;;;;;3.63;2.13;;;;;;;16.31;53.31;92448.28;5048531;28;20090;-35
2022/12/10 11:50:42;;;;;;;6.18;2.95;;;;;;;16.04;54.54;92430.69;5046409;28;20504;-35
2022/12/10 11:53:10;;;;;;;5.35;2.15;;;;;;;16.02;55.37;92436.88;5049273;28;20025;-35
2022/12/10 11:56:17;;;;;;;9.55;4.30;;;;;;;15.78;55.79;92436.19;5048904;28;20025;-35